createdAt,value
2024-02-17T00:00:51.652Z,102534.16
2024-02-17T00:03:24.802Z,102531.75
2024-02-17T00:05:52.731Z,102535.22
2024-02-17T00:08:19.793Z,102536.03
2024-02-17T00:10:46.906Z,102539.78
2024-02-17T00:13:13.940Z,102541.91
2024-02-17T00:15:41.008Z,102541.38
2024-02-17T00:18:08.870Z,102538.47
2024-02-17T00:20:37.286Z,102550.50
2024-02-17T00:23:04.615Z,102553.69
2024-02-17T00:25:31.513Z,102554.75
2024-02-17T00:27:58.386Z,102559.78
2024-02-17T00:30:25.492Z,102554.75
2024-02-17T00:32:52.799Z,102559.06
2024-02-17T00:35:19.669Z,102558.78
2024-02-17T00:37:46.955Z,102570.56
2024-02-17T00:40:15.117Z,102567.09
2024-02-17T00:42:42.351Z,102568.16
2024-02-17T00:45:10.109Z,102568.97
2024-02-17T00:47:37.338Z,102577.25
2024-02-17T00:50:04.615Z,102582.09
2024-02-17T00:52:31.564Z,102582.34
2024-02-17T00:54:58.483Z,102588.78
2024-02-17T00:57:25.394Z,102583.97
2024-02-17T00:59:52.263Z,102588.50
2024-02-17T01:02:19.287Z,102600.31
2024-02-17T01:04:46.435Z,102602.72
2024-02-17T01:07:13.568Z,102597.88
2024-02-17T01:09:40.702Z,102607.31
2024-02-17T01:12:07.868Z,102607.31
2024-02-17T01:14:35.289Z,102609.41
2024-02-17T01:17:02.338Z,102619.63
2024-02-17T01:19:29.412Z,102626.53
2024-02-17T01:21:56.495Z,102626.06
2024-02-17T01:24:23.443Z,102629.53
2024-02-17T01:26:50.416Z,102638.91
2024-02-17T01:29:20.384Z,102642.66
2024-02-17T01:31:47.328Z,102644.53
2024-02-17T01:34:14.569Z,102634.88
2024-02-17T01:36:41.543Z,102644.53
2024-02-17T01:39:12.208Z,102642.94
2024-02-17T01:41:39.163Z,102641.28
2024-02-17T01:44:08.107Z,102642.66
2024-02-17T01:46:35.032Z,102644.81
2024-02-17T01:49:02.036Z,102643.16
2024-02-17T01:51:29.545Z,102655.19
2024-02-17T01:53:57.093Z,102649.03
2024-02-17T01:56:26.703Z,102652.78
2024-02-17T01:58:56.917Z,102655.47
2024-02-17T02:01:25.001Z,102657.81
2024-02-17T02:03:52.270Z,102650.28
2024-02-17T02:06:22.242Z,102655.56
2024-02-17T02:08:50.085Z,102661.69
2024-02-17T02:11:17.752Z,102659.25
2024-02-17T02:13:44.686Z,102653.28
2024-02-17T02:16:12.104Z,102661.81
2024-02-17T02:18:39.212Z,102660.47
2024-02-17T02:21:06.757Z,102667.69
2024-02-17T02:23:36.409Z,102676.16
2024-02-17T02:26:03.357Z,102674.34
2024-02-17T02:28:31.984Z,102685.06
2024-02-17T02:31:01.887Z,102680.25
2024-02-17T02:33:29.905Z,102683.47
2024-02-17T02:35:56.909Z,102690.69
2024-02-17T02:38:23.751Z,102696.31
2024-02-17T02:40:50.859Z,102695.78
2024-02-17T02:43:18.666Z,102696.06
2024-02-17T02:45:45.861Z,102702.22
2024-02-17T02:48:12.975Z,102702.72
2024-02-17T02:50:40.221Z,102704.91
2024-02-17T02:53:09.767Z,102704.91
2024-02-17T02:55:36.722Z,102708.69
2024-02-17T02:58:03.935Z,102712.47
2024-02-17T03:00:30.950Z,102713.28
2024-02-17T03:02:57.935Z,102719.97
2024-02-17T03:05:25.202Z,102720.56
2024-02-17T03:07:53.029Z,102729.38
2024-02-17T03:10:20.292Z,102725.38
2024-02-17T03:12:47.451Z,102724.59
2024-02-17T03:15:14.547Z,102726.44
2024-02-17T03:17:41.625Z,102735.56
2024-02-17T03:20:09.553Z,102736.34
2024-02-17T03:22:36.747Z,102736.91
2024-02-17T03:25:03.862Z,102738.50
2024-02-17T03:27:31.066Z,102744.66
2024-02-17T03:29:57.985Z,102745.75
2024-02-17T03:32:25.447Z,102754.31
2024-02-17T03:34:52.745Z,102758.66
2024-02-17T03:37:20.692Z,102761.06
2024-02-17T03:39:49.532Z,102762.06
2024-02-17T03:42:16.688Z,102764.22
2024-02-17T03:44:43.761Z,102768.78
2024-02-17T03:47:12.587Z,102783.22
2024-02-17T03:49:39.747Z,102786.16
2024-02-17T03:52:07.474Z,102792.06
2024-02-17T03:54:34.509Z,102805.19
2024-02-17T03:57:01.871Z,102804.44
2024-02-17T03:59:28.852Z,102810.59
2024-02-17T04:02:00.773Z,102814.66
2024-02-17T04:04:27.992Z,102823.72
2024-02-17T04:06:55.066Z,102822.31
2024-02-17T04:09:22.181Z,102825.00
2024-02-17T04:11:49.235Z,102833.25
2024-02-17T04:14:16.302Z,102836.72
2024-02-17T04:16:43.352Z,102845.78
2024-02-17T04:19:10.624Z,102844.94
2024-02-17T04:21:37.860Z,102844.63
2024-02-17T04:24:05.167Z,102849.41
2024-02-17T04:26:32.073Z,102850.22
2024-02-17T04:28:59.284Z,102847.81
2024-02-17T04:31:26.200Z,102858.78
2024-02-17T04:33:54.304Z,102865.66
2024-02-17T04:36:21.315Z,102865.41
2024-02-17T04:38:48.428Z,102863.00
2024-02-17T04:41:15.347Z,102864.84
2024-02-17T04:43:42.436Z,102883.53
2024-02-17T04:46:09.687Z,102872.50
2024-02-17T04:48:36.583Z,102868.72
2024-02-17T04:51:04.274Z,102876.16
2024-02-17T04:53:31.117Z,102878.13
2024-02-17T04:55:58.031Z,102873.00
2024-02-17T04:58:25.341Z,102872.69
2024-02-17T05:00:52.298Z,102879.44
2024-02-17T05:03:19.571Z,102888.56
2024-02-17T05:05:46.719Z,102882.97
2024-02-17T05:08:14.808Z,102889.94
2024-02-17T05:10:41.773Z,102892.84
2024-02-17T05:13:08.787Z,102901.13
2024-02-17T05:15:36.755Z,102896.75
2024-02-17T05:18:04.666Z,102905.78
2024-02-17T05:20:31.978Z,102911.44
2024-02-17T05:22:59.984Z,102910.56
2024-02-17T05:25:27.085Z,102910.56
2024-02-17T05:27:54.311Z,102914.28
2024-02-17T05:30:21.891Z,102922.91
2024-02-17T05:32:49.833Z,102919.66
2024-02-17T05:35:17.260Z,102927.13
2024-02-17T05:37:44.785Z,102944.22
2024-02-17T05:40:13.850Z,102938.63
2024-02-17T05:42:41.132Z,102959.78
2024-02-17T05:45:09.108Z,102960.84
2024-02-17T05:47:36.387Z,102965.63
2024-02-17T05:50:05.360Z,102975.56
2024-02-17T05:52:32.644Z,102978.66
2024-02-17T05:54:59.635Z,102985.06
2024-02-17T05:57:27.508Z,102986.38
2024-02-17T05:59:54.496Z,102992.78
2024-02-17T06:02:21.383Z,102998.84
2024-02-17T06:04:48.507Z,103000.16
2024-02-17T06:07:17.979Z,103001.53
2024-02-17T06:09:45.125Z,103003.06
2024-02-17T06:12:12.519Z,103011.59
2024-02-17T06:14:39.477Z,103016.09
2024-02-17T06:17:08.763Z,103015.22
2024-02-17T06:19:54.669Z,103020.72
2024-02-17T06:22:22.248Z,103027.50
2024-02-17T06:24:49.389Z,103040.22
2024-02-17T06:27:16.571Z,103041.88
2024-02-17T06:29:44.738Z,103041.78
2024-02-17T06:32:11.905Z,103043.06
2024-02-17T06:34:40.019Z,103050.53
2024-02-17T06:37:07.066Z,103054.47
2024-02-17T06:39:35.832Z,103067.50
2024-02-17T06:42:02.930Z,103067.88
2024-02-17T06:44:29.918Z,103068.09
2024-02-17T06:46:57.084Z,103072.41
2024-02-17T06:49:24.270Z,103071.34
2024-02-17T06:51:51.630Z,103064.63
2024-02-17T06:54:18.864Z,103081.56
2024-02-17T06:56:46.028Z,103079.13
2024-02-17T06:59:12.854Z,103078.31
2024-02-17T07:01:39.869Z,103086.22
2024-02-17T07:04:07.161Z,103091.66
2024-02-17T07:06:34.300Z,103094.81
2024-02-17T07:09:01.345Z,103095.41
2024-02-17T07:11:28.370Z,103101.44
2024-02-17T07:13:55.862Z,103098.19
2024-02-17T07:16:22.816Z,103109.94
2024-02-17T07:18:51.318Z,103108.19
2024-02-17T07:21:18.503Z,103115.72
2024-02-17T07:23:45.651Z,103109.56
2024-02-17T07:26:12.704Z,103124.19
2024-02-17T07:28:39.920Z,103125.81
2024-02-17T07:31:07.062Z,103126.38
2024-02-17T07:33:34.575Z,103124.50
2024-02-17T07:36:02.179Z,103133.69
2024-02-17T07:38:28.999Z,103137.84
2024-02-17T07:40:55.904Z,103142.72
2024-02-17T07:43:23.133Z,103145.75
2024-02-17T07:45:50.545Z,103148.19
2024-02-17T07:48:18.551Z,103157.59
2024-02-17T07:50:45.881Z,103160.81
2024-02-17T07:53:12.940Z,103165.84
2024-02-17T07:55:39.856Z,103174.91
2024-02-17T07:58:09.920Z,103183.63
2024-02-17T08:00:37.596Z,103185.28
2024-02-17T08:03:04.658Z,103195.03
2024-02-17T08:05:31.795Z,103198.06
2024-02-17T08:07:58.768Z,103203.53
2024-02-17T08:10:25.802Z,103206.78
2024-02-17T08:12:53.153Z,103200.00
2024-02-17T08:15:20.243Z,103199.97
2024-02-17T08:17:47.253Z,103210.75
2024-02-17T08:20:14.527Z,103209.94
2024-02-17T08:22:41.543Z,103223.44
2024-02-17T08:25:10.665Z,103217.47
2024-02-17T08:27:38.112Z,103219.34
2024-02-17T08:30:06.481Z,103234.34
2024-02-17T08:32:34.187Z,103238.50
2024-02-17T08:35:02.393Z,103232.34
2024-02-17T08:37:29.877Z,103233.38
2024-02-17T08:39:56.869Z,103238.94
2024-02-17T08:42:23.944Z,103238.78
2024-02-17T08:44:54.264Z,103233.91
2024-02-17T08:47:22.630Z,103228.94
2024-02-17T08:49:50.538Z,103246.16
2024-02-17T08:52:18.035Z,103231.03
2024-02-17T08:54:45.223Z,103243.03
2024-02-17T08:57:12.164Z,103233.03
2024-02-17T08:59:39.158Z,103240.50
2024-02-17T09:02:06.090Z,103239.34
2024-02-17T09:04:32.966Z,103239.91
2024-02-17T09:07:01.226Z,103238.97
2024-02-17T09:09:29.811Z,103241.59
2024-02-17T09:11:57.089Z,103245.47
2024-02-17T09:14:24.284Z,103235.34
2024-02-17T09:16:52.767Z,103227.88
2024-02-17T09:19:19.956Z,103226.19
2024-02-17T09:21:47.347Z,103230.34
2024-02-17T09:24:20.675Z,103221.00
2024-02-17T09:26:48.024Z,103225.75
2024-02-17T09:29:15.077Z,103234.50
2024-02-17T09:31:42.789Z,103245.78
2024-02-17T09:34:10.052Z,103254.34
2024-02-17T09:36:37.243Z,103251.38
2024-02-17T09:39:04.405Z,103245.41
2024-02-17T09:41:32.149Z,103246.16
2024-02-17T09:43:59.157Z,103249.91
2024-02-17T09:46:29.290Z,103255.50
2024-02-17T09:49:00.819Z,103266.03
2024-02-17T09:51:28.075Z,103266.66
2024-02-17T09:53:56.946Z,103267.03
2024-02-17T09:56:26.242Z,103269.94
2024-02-17T09:58:54.278Z,103272.63
2024-02-17T10:01:21.658Z,103275.69
2024-02-17T10:03:48.782Z,103287.16
2024-02-17T10:06:17.320Z,103291.56
2024-02-17T10:08:47.697Z,103280.53
2024-02-17T10:11:14.870Z,103278.88
2024-02-17T10:13:43.741Z,103284.41
2024-02-17T10:16:15.138Z,103281.50
2024-02-17T10:18:43.405Z,103289.97
2024-02-17T10:21:11.417Z,103297.81
2024-02-17T10:23:39.096Z,103296.03
2024-02-17T10:26:07.160Z,103310.38
2024-02-17T10:28:34.937Z,103303.25
2024-02-17T10:31:09.849Z,103312.66
2024-02-17T10:33:39.101Z,103302.03
2024-02-17T10:36:08.629Z,103312.25
2024-02-17T10:38:36.654Z,103308.31
2024-02-17T10:41:03.642Z,103316.16
2024-02-17T10:43:30.914Z,103324.19
2024-02-17T10:46:01.757Z,103328.97
2024-02-17T10:48:29.088Z,103338.22
2024-02-17T10:50:56.194Z,103333.28
2024-02-17T10:53:31.525Z,103329.97
2024-02-17T10:56:00.831Z,103326.19
2024-02-17T10:58:27.751Z,103320.13
2024-02-17T11:00:55.094Z,103326.19
2024-02-17T11:03:27.007Z,103321.84
2024-02-17T11:06:00.391Z,103316.78
2024-02-17T11:08:28.011Z,103309.56
2024-02-17T11:10:55.091Z,103310.72
2024-02-17T11:13:28.329Z,103310.59
2024-02-17T11:16:06.325Z,103310.94
2024-02-17T11:18:36.584Z,103315.19
2024-02-17T11:21:08.020Z,103314.44
2024-02-17T11:23:35.687Z,103317.84
2024-02-17T11:26:03.164Z,103318.06
2024-02-17T11:28:32.106Z,103329.31
2024-02-17T11:31:07.898Z,103324.19
2024-02-17T11:33:36.833Z,103323.34
2024-02-17T11:36:11.760Z,103327.75
2024-02-17T11:38:39.206Z,103315.56
2024-02-17T11:41:06.407Z,103318.91
2024-02-17T11:43:35.604Z,103321.91
2024-02-17T11:46:04.628Z,103330.63
2024-02-17T11:48:34.134Z,103329.03
2024-02-17T11:51:14.357Z,103328.78
2024-02-17T11:53:47.490Z,103323.00
2024-02-17T11:56:15.580Z,103333.25
2024-02-17T11:58:46.111Z,103322.19
2024-02-17T12:01:15.056Z,103323.94
2024-02-17T12:03:44.314Z,103318.47
2024-02-17T12:06:12.292Z,103336.84
2024-02-17T12:08:39.666Z,103337.75
2024-02-17T12:11:06.977Z,103337.19
2024-02-17T12:13:33.919Z,103328.69
2024-02-17T12:16:09.345Z,103329.88
2024-02-17T12:18:44.330Z,103340.78
2024-02-17T12:21:12.948Z,103343.13
2024-02-17T12:23:42.620Z,103343.28
2024-02-17T12:26:17.098Z,103352.97
2024-02-17T12:28:52.871Z,103356.41
2024-02-17T12:31:21.325Z,103366.78
2024-02-17T12:33:50.574Z,103355.22
2024-02-17T12:36:19.292Z,103356.78
2024-02-17T12:38:46.321Z,103356.91
2024-02-17T12:41:16.504Z,103356.88
2024-02-17T12:43:54.845Z,103347.19
2024-02-17T12:46:25.418Z,103355.09
2024-02-17T12:48:52.685Z,103347.06
2024-02-17T12:51:21.731Z,103351.19
2024-02-17T12:53:49.719Z,103358.44
2024-02-17T12:56:20.656Z,103356.38
2024-02-17T12:58:49.285Z,103354.09
2024-02-17T13:01:16.151Z,103353.13
2024-02-17T13:03:43.336Z,103354.09
2024-02-17T13:06:10.613Z,103352.50
2024-02-17T13:08:37.830Z,103350.84
2024-02-17T13:11:05.564Z,103353.72
2024-02-17T13:13:34.414Z,103355.31
2024-02-17T13:16:02.310Z,103355.06
2024-02-17T13:18:29.420Z,103361.84
2024-02-17T13:20:56.666Z,103350.53
2024-02-17T13:23:23.697Z,103366.06
2024-02-17T13:25:51.873Z,103359.53
2024-02-17T13:28:19.147Z,103356.38
2024-02-17T13:30:49.091Z,103367.16
2024-02-17T13:33:18.248Z,103374.69
2024-02-17T13:35:45.319Z,103370.56
2024-02-17T13:38:21.896Z,103369.63
2024-02-17T13:40:56.469Z,103384.38
2024-02-17T13:43:23.818Z,103380.13
2024-02-17T13:45:51.222Z,103387.50
2024-02-17T13:48:18.527Z,103378.06
2024-02-17T13:50:46.679Z,103383.81
2024-02-17T13:53:13.965Z,103379.66
2024-02-17T13:55:43.875Z,103386.22
2024-02-17T13:58:13.002Z,103378.84
2024-02-17T14:00:41.359Z,103377.38
2024-02-17T14:03:09.594Z,103383.66
2024-02-17T14:05:36.996Z,103374.25
2024-02-17T14:08:04.172Z,103366.81
2024-02-17T14:10:31.300Z,103373.72
2024-02-17T14:13:00.724Z,103374.06
2024-02-17T14:15:28.170Z,103366.34
2024-02-17T14:17:55.516Z,103372.16
2024-02-17T14:20:22.548Z,103372.72
2024-02-17T14:22:49.725Z,103370.31
2024-02-17T14:25:17.000Z,103372.72
2024-02-17T14:27:44.095Z,103376.81
2024-02-17T14:30:11.800Z,103371.31
2024-02-17T14:32:38.974Z,103378.94
2024-02-17T14:35:07.002Z,103380.00
2024-02-17T14:37:34.024Z,103379.69
2024-02-17T14:40:01.043Z,103380.50
2024-02-17T14:42:28.533Z,103377.44
2024-02-17T14:44:55.539Z,103376.81
2024-02-17T14:47:22.464Z,103380.44
2024-02-17T14:49:49.508Z,103395.88
2024-02-17T14:52:16.884Z,103383.97
2024-02-17T14:54:45.638Z,103389.91
2024-02-17T14:57:13.747Z,103391.94
2024-02-17T14:59:41.305Z,103393.94
2024-02-17T15:02:08.806Z,103407.66
2024-02-17T15:04:36.528Z,103406.50
2024-02-17T15:07:04.058Z,103400.28
2024-02-17T15:09:32.018Z,103405.91
2024-02-17T15:12:00.263Z,103413.25
2024-02-17T15:14:29.477Z,103414.44
2024-02-17T15:16:57.154Z,103422.91
2024-02-17T15:19:24.423Z,103426.28
2024-02-17T15:21:51.570Z,103428.81
2024-02-17T15:24:19.051Z,103438.75
2024-02-17T15:26:46.669Z,103438.75
2024-02-17T15:29:13.800Z,103443.81
2024-02-17T15:31:40.752Z,103437.38
2024-02-17T15:34:09.436Z,103442.50
2024-02-17T15:36:37.824Z,103439.81
2024-02-17T15:39:07.163Z,103445.69
2024-02-17T15:41:34.522Z,103443.81
2024-02-17T15:44:01.515Z,103440.78
2024-02-17T15:46:28.428Z,103445.84
2024-02-17T15:48:55.777Z,103445.84
2024-02-17T15:51:22.913Z,103445.50
2024-02-17T15:53:49.773Z,103456.50
2024-02-17T15:56:18.562Z,103463.75
2024-02-17T15:58:46.577Z,103460.50
2024-02-17T16:01:14.133Z,103451.63
2024-02-17T16:03:41.632Z,103462.78
2024-02-17T16:06:10.162Z,103465.72
2024-02-17T16:08:39.872Z,103462.44
2024-02-17T16:11:09.046Z,103464.31
2024-02-17T16:13:44.616Z,103462.03
2024-02-17T16:16:13.931Z,103466.59
2024-02-17T16:18:40.987Z,103459.59
2024-02-17T16:21:08.474Z,103458.69
2024-02-17T16:23:36.332Z,103460.75
2024-02-17T16:26:05.908Z,103454.06
2024-02-17T16:28:33.605Z,103457.16
2024-02-17T16:31:02.049Z,103443.25
2024-02-17T16:33:33.923Z,103431.81
2024-02-17T16:36:04.205Z,103438.94
2024-02-17T16:38:32.019Z,103446.69
2024-02-17T16:41:03.065Z,103441.31
2024-02-17T16:43:32.228Z,103440.97
2024-02-17T16:46:01.028Z,103443.91
2024-02-17T16:48:29.442Z,103433.81
2024-02-17T16:50:58.502Z,103435.84
2024-02-17T16:53:25.848Z,103428.31
2024-02-17T16:55:52.919Z,103424.81
2024-02-17T16:58:19.789Z,103425.66
2024-02-17T17:00:46.990Z,103442.56
2024-02-17T17:03:13.888Z,103456.47
2024-02-17T17:05:41.057Z,103459.72
2024-02-17T17:08:08.582Z,103471.91
2024-02-17T17:10:35.529Z,103478.59
2024-02-17T17:13:02.597Z,103487.94
2024-02-17T17:15:29.728Z,103486.19
2024-02-17T17:17:56.707Z,103490.16
2024-02-17T17:20:24.769Z,103490.59
2024-02-17T17:22:51.817Z,103482.78
2024-02-17T17:25:18.744Z,103480.69
2024-02-17T17:27:46.084Z,103480.59
2024-02-17T17:30:13.967Z,103474.31
2024-02-17T17:32:42.119Z,103465.94
2024-02-17T17:35:09.973Z,103471.16
2024-02-17T17:37:37.639Z,103467.50
2024-02-17T17:40:06.569Z,103470.78
2024-02-17T17:42:33.724Z,103482.94
2024-02-17T17:45:00.875Z,103469.63
2024-02-17T17:47:32.182Z,103481.91
2024-02-17T17:49:59.496Z,103496.72
2024-02-17T17:52:26.704Z,103498.00
2024-02-17T17:54:54.039Z,103498.44
2024-02-17T17:57:24.370Z,103505.22
2024-02-17T17:59:52.270Z,103508.22
2024-02-17T18:02:20.730Z,103496.09
2024-02-17T18:04:48.012Z,103502.41
2024-02-17T18:07:20.255Z,103514.06
2024-02-17T18:09:47.267Z,103506.84
2024-02-17T18:12:14.881Z,103501.72
2024-02-17T18:14:42.208Z,103501.75
2024-02-17T18:17:12.698Z,103510.47
2024-02-17T18:19:39.591Z,103507.22
2024-02-17T18:22:07.226Z,103504.41
2024-02-17T18:24:34.155Z,103506.59
2024-02-17T18:27:01.055Z,103508.69
2024-02-17T18:29:28.215Z,103513.72
2024-02-17T18:31:56.735Z,103506.84
2024-02-17T18:34:23.879Z,103507.28
2024-02-17T18:36:50.965Z,103507.53
2024-02-17T18:39:17.916Z,103505.09
2024-02-17T18:41:47.000Z,103508.84
2024-02-17T18:44:14.001Z,103522.47
2024-02-17T18:46:41.245Z,103519.06
2024-02-17T18:49:09.366Z,103517.19
2024-02-17T18:51:39.479Z,103520.84
2024-02-17T18:54:07.777Z,103527.13
2024-02-17T18:56:35.512Z,103527.25
2024-02-17T18:59:02.482Z,103530.41
2024-02-17T19:01:29.781Z,103543.69
2024-02-17T19:03:57.067Z,103536.81
2024-02-17T19:06:24.204Z,103547.88
2024-02-17T19:08:53.204Z,103547.06
2024-02-17T19:11:23.211Z,103547.06
2024-02-17T19:13:50.095Z,103556.66
2024-02-17T19:16:18.387Z,103540.56
2024-02-17T19:18:45.502Z,103548.25
2024-02-17T19:21:12.818Z,103549.66
2024-02-17T19:23:40.604Z,103542.19
2024-02-17T19:26:07.854Z,103546.75
2024-02-17T19:28:34.767Z,103544.88
2024-02-17T19:31:06.029Z,103542.19
2024-02-17T19:33:33.387Z,103537.78
2024-02-17T19:36:01.115Z,103534.75
2024-02-17T19:38:27.936Z,103546.88
2024-02-17T19:40:54.935Z,103542.66
2024-02-17T19:43:21.882Z,103537.19
2024-02-17T19:45:48.899Z,103539.41
2024-02-17T19:48:16.268Z,103541.19
2024-02-17T19:50:43.330Z,103548.41
2024-02-17T19:53:11.441Z,103545.59
2024-02-17T19:55:38.363Z,103537.25
2024-02-17T19:58:07.361Z,103543.63
2024-02-17T20:00:34.340Z,103538.72
2024-02-17T20:03:02.057Z,103534.56
2024-02-17T20:05:30.168Z,103545.13
2024-02-17T20:07:57.309Z,103541.06
2024-02-17T20:10:25.255Z,103537.81
2024-02-17T20:12:52.804Z,103539.06
2024-02-17T20:15:20.115Z,103537.69
2024-02-17T20:17:47.227Z,103534.56
2024-02-17T20:20:18.129Z,103546.19
2024-02-17T20:22:47.394Z,103553.75
2024-02-17T20:25:14.382Z,103547.13
2024-02-17T20:27:41.919Z,103546.22
2024-02-17T20:30:09.694Z,103554.50
2024-02-17T20:32:36.657Z,103553.53
2024-02-17T20:35:04.410Z,103548.66
2024-02-17T20:37:31.618Z,103550.03
2024-02-17T20:40:01.836Z,103540.84
2024-02-17T20:42:29.727Z,103541.06
2024-02-17T20:44:56.979Z,103550.31
2024-02-17T20:47:24.293Z,103537.97
2024-02-17T20:49:51.459Z,103549.00
2024-02-17T20:52:18.708Z,103539.59
2024-02-17T20:54:45.777Z,103543.31
2024-02-17T20:57:12.877Z,103550.16
2024-02-17T20:59:39.813Z,103534.47
2024-02-17T21:02:06.816Z,103543.75
2024-02-17T21:04:34.160Z,103548.44
2024-02-17T21:07:01.426Z,103552.38
2024-02-17T21:09:28.449Z,103553.69
2024-02-17T21:11:55.467Z,103545.03
2024-02-17T21:14:22.320Z,103546.34
2024-02-17T21:16:49.338Z,103548.53
2024-02-17T21:19:16.361Z,103540.50
2024-02-17T21:21:43.609Z,103535.13
2024-02-17T21:24:10.824Z,103540.03
2024-02-17T21:26:37.855Z,103546.22
2024-02-17T21:29:04.725Z,103536.88
2024-02-17T21:31:31.677Z,103538.75
2024-02-17T21:33:58.667Z,103537.13
2024-02-17T21:36:26.315Z,103532.56
2024-02-17T21:38:53.312Z,103528.97
2024-02-17T21:41:20.832Z,103533.59
2024-02-17T21:43:47.716Z,103538.75
2024-02-17T21:46:14.780Z,103527.69
2024-02-17T21:48:42.445Z,103532.34
2024-02-17T21:51:17.754Z,103531.41
2024-02-17T21:53:45.738Z,103538.38
2024-02-17T21:56:12.695Z,103530.00
2024-02-17T21:58:39.822Z,103529.28
2024-02-17T22:01:07.157Z,103533.84
2024-02-17T22:03:34.567Z,103528.59
2024-02-17T22:06:01.826Z,103524.66
2024-02-17T22:08:29.885Z,103525.22
2024-02-17T22:10:57.077Z,103523.84
2024-02-17T22:13:24.167Z,103521.63
2024-02-17T22:15:51.194Z,103524.88
2024-02-17T22:18:18.450Z,103528.75
2024-02-17T22:20:47.193Z,103516.38
2024-02-17T22:23:14.106Z,103506.72
2024-02-17T22:25:43.395Z,103500.06
2024-02-17T22:28:11.580Z,103501.97
2024-02-17T22:30:38.509Z,103494.50
2024-02-17T22:33:06.498Z,103495.19
2024-02-17T22:35:33.612Z,103498.69
2024-02-17T22:38:04.266Z,103489.72
2024-02-17T22:40:32.984Z,103499.63
2024-02-17T22:43:03.260Z,103507.66
2024-02-17T22:45:30.866Z,103503.91
2024-02-17T22:47:58.250Z,103492.38
2024-02-17T22:50:25.453Z,103504.72
2024-02-17T22:52:53.227Z,103499.75
2024-02-17T22:55:20.396Z,103496.81
2024-02-17T22:57:47.640Z,103497.78
2024-02-17T23:00:23.706Z,103493.25
2024-02-17T23:02:51.887Z,103502.78
2024-02-17T23:05:20.349Z,103515.13
2024-02-17T23:07:48.297Z,103507.03
2024-02-17T23:10:15.553Z,103511.34
2024-02-17T23:12:42.998Z,103499.47
2024-02-17T23:15:13.581Z,103502.38
2024-02-17T23:17:41.019Z,103488.41
2024-02-17T23:20:14.130Z,103493.41
2024-02-17T23:22:42.062Z,103478.81
2024-02-17T23:25:10.295Z,103482.97
2024-02-17T23:27:41.146Z,103488.03
2024-02-17T23:30:12.543Z,103480.53
2024-02-17T23:32:41.197Z,103484.34
2024-02-17T23:35:08.477Z,103478.63
2024-02-17T23:37:35.781Z,103472.78
2024-02-17T23:40:03.940Z,103476.75
2024-02-17T23:42:31.498Z,103473.13
2024-02-17T23:44:58.533Z,103465.88
2024-02-17T23:47:25.734Z,103463.78
2024-02-17T23:49:53.752Z,103461.56
2024-02-17T23:52:20.966Z,103463.19
2024-02-17T23:54:47.964Z,103459.25
2024-02-17T23:57:15.165Z,103453.63
2024-02-17T23:59:43.415Z,103445.34
